Time;durP1;ratioP1;P1;durP2;ratioP2;P2;SDS_P1;SDS_P2;PMS_P1;PMS_P2;Temp;Humidity;BMP_temperature;BMP_pressure;BME280_temperature;BME280_humidity;BME280_pressure;Samples;Min_cycle;Max_cycle;Signal;HPM_P1;HPM_P2
2022/02/13 00:01:15;;;;;;;13.02;6.13;;;-0.50;99.90;;;;;;5045163;28;20037;-58
2022/02/13 00:03:40;;;;;;;17.55;5.65;;;-0.50;99.90;;;;;;5047310;28;20577;-57
2022/02/13 00:06:06;;;;;;;13.93;5.70;;;-0.50;99.90;;;;;;5043331;28;20029;-58
2022/02/13 00:08:31;;;;;;;14.43;5.50;;;-0.50;99.90;;;;;;5046945;28;20033;-59
2022/02/13 00:10:57;;;;;;;14.13;5.47;;;-0.60;99.90;;;;;;5051641;28;20044;-57
2022/02/13 00:13:22;;;;;;;20.27;6.53;;;-0.50;99.90;;;;;;5048368;28;20063;-58
2022/02/13 00:15:48;;;;;;;13.23;6.13;;;-0.50;99.90;;;;;;5050284;28;20029;-54
2022/02/13 00:18:14;;;;;;;16.60;5.73;;;-0.60;99.90;;;;;;5046156;28;20478;-58
2022/02/13 00:20:39;;;;;;;18.17;6.27;;;-0.50;99.90;;;;;;5042063;28;20084;-57
2022/02/13 00:23:05;;;;;;;10.90;4.77;;;-0.50;99.90;;;;;;5046037;28;20033;-58
2022/02/13 00:25:31;;;;;;;15.30;6.27;;;-0.50;99.90;;;;;;5033674;28;20104;-59
2022/02/13 00:27:56;;;;;;;17.37;5.63;;;-0.60;99.90;;;;;;5040508;28;20040;-57
2022/02/13 00:30:22;;;;;;;13.90;6.13;;;-0.60;99.90;;;;;;5039906;28;20084;-57
2022/02/13 00:32:50;;;;;;;17.07;6.37;;;-0.60;99.90;;;;;;5035197;28;20029;-57
2022/02/13 00:35:15;;;;;;;12.90;5.70;;;-0.50;99.90;;;;;;5031872;28;20029;-58
2022/02/13 00:37:41;;;;;;;12.43;4.70;;;-0.50;99.90;;;;;;5041493;28;20026;-58
2022/02/13 00:40:08;;;;;;;13.77;5.00;;;-0.50;99.90;;;;;;5038918;28;20367;-57
2022/02/13 00:42:34;;;;;;;12.40;5.30;;;-0.50;99.90;;;;;;5035470;28;20029;-58
2022/02/13 00:45:00;;;;;;;11.13;5.03;;;-0.50;99.90;;;;;;5036232;28;20116;-57
2022/02/13 00:47:26;;;;;;;12.07;5.37;;;-0.40;99.90;;;;;;5036707;28;20412;-56
2022/02/13 00:49:52;;;;;;;13.67;5.30;;;-0.40;99.90;;;;;;5033264;28;20030;-59
2022/02/13 00:52:18;;;;;;;11.37;4.77;;;-0.50;99.90;;;;;;5038070;28;20041;-58
2022/02/13 00:54:43;;;;;;;11.77;5.65;;;-0.50;99.90;;;;;;5044780;28;20026;-58
2022/02/13 00:57:09;;;;;;;12.97;4.97;;;-0.50;99.90;;;;;;5045709;28;20681;-58
2022/02/13 00:59:35;;;;;;;16.40;5.70;;;-0.50;99.90;;;;;;5042814;28;20505;-59
2022/02/13 01:02:00;;;;;;;11.43;4.83;;;-0.50;99.90;;;;;;5042976;28;20053;-58
2022/02/13 01:04:26;;;;;;;10.63;4.80;;;-0.50;99.90;;;;;;5031307;28;20502;-59
2022/02/13 01:06:51;;;;;;;11.50;5.00;;;-0.50;99.90;;;;;;5041349;28;20049;-59
2022/02/13 01:09:17;;;;;;;15.90;5.28;;;-0.60;99.90;;;;;;5039821;28;20037;-57
2022/02/13 01:11:42;;;;;;;12.75;5.38;;;-0.50;99.90;;;;;;5041444;28;20456;-58
2022/02/13 01:14:09;;;;;;;13.70;5.47;;;-0.60;99.90;;;;;;5042628;28;20032;-59
2022/02/13 01:16:34;;;;;;;10.20;4.70;;;-0.60;99.90;;;;;;5030427;28;20056;-58
2022/02/13 01:19:00;;;;;;;18.67;5.50;;;-0.60;99.90;;;;;;5041404;28;20037;-57
2022/02/13 01:21:28;;;;;;;11.53;5.30;;;-0.70;99.90;;;;;;5044550;28;20033;-58
2022/02/13 01:23:53;;;;;;;10.00;4.80;;;-0.70;99.90;;;;;;5046151;28;20394;-58
2022/02/13 01:26:19;;;;;;;13.83;5.27;;;-0.80;99.90;;;;;;5043752;28;20033;-59
2022/02/13 01:28:45;;;;;;;12.87;5.50;;;-0.80;99.90;;;;;;5040481;28;20562;-58
2022/02/13 01:31:10;;;;;;;13.47;5.43;;;-0.80;99.90;;;;;;5048739;28;20043;-57
2022/02/13 01:33:36;;;;;;;13.03;5.53;;;-0.80;99.90;;;;;;5045108;28;20061;-57
2022/02/13 01:36:03;;;;;;;17.13;5.90;;;-0.80;99.90;;;;;;5045553;28;20044;-57
2022/02/13 01:38:31;;;;;;;14.37;5.03;;;-0.80;99.90;;;;;;5046773;28;20025;-56
2022/02/13 01:40:57;;;;;;;10.80;5.17;;;-0.80;99.90;;;;;;5047475;28;20473;-59
2022/02/13 01:43:22;;;;;;;15.93;5.00;;;-0.80;99.90;;;;;;5044380;28;20041;-57
2022/02/13 01:45:48;;;;;;;10.60;5.60;;;-0.80;99.90;;;;;;5041800;28;20056;-58
2022/02/13 01:48:13;;;;;;;13.20;5.63;;;-0.80;99.90;;;;;;5013007;28;20538;-59
2022/02/13 01:50:41;;;;;;;11.73;4.30;;;-0.80;99.90;;;;;;5041650;28;20036;-58
2022/02/13 01:53:08;;;;;;;11.27;5.33;;;-0.70;99.90;;;;;;5030478;28;20033;-55
2022/02/13 01:55:34;;;;;;;11.87;5.43;;;-0.80;99.90;;;;;;5032182;28;20033;-58
2022/02/13 01:58:00;;;;;;;11.10;5.05;;;-0.70;99.90;;;;;;5040432;28;20048;-54
2022/02/13 02:00:26;;;;;;;10.53;5.03;;;-0.70;99.90;;;;;;5044533;28;20056;-58
2022/02/13 02:02:52;;;;;;;11.43;5.40;;;-0.70;99.90;;;;;;5045350;28;20061;-58
2022/02/13 02:05:20;;;;;;;12.93;4.60;;;-0.70;99.90;;;;;;5038240;28;20041;-59
2022/02/13 02:07:46;;;;;;;9.50;4.47;;;-0.60;99.90;;;;;;5049519;28;20029;-58
2022/02/13 02:10:11;;;;;;;14.33;5.40;;;-0.60;99.90;;;;;;5047090;28;20033;-58
2022/02/13 02:12:38;;;;;;;14.57;5.17;;;-0.50;99.90;;;;;;5037501;28;20083;-58
2022/02/13 02:15:05;;;;;;;13.98;4.88;;;-0.60;99.90;;;;;;5040821;28;20416;-59
2022/02/13 02:17:32;;;;;;;17.52;5.68;;;-0.50;99.90;;;;;;5042198;28;20024;-59
2022/02/13 02:19:57;;;;;;;13.47;5.00;;;-0.50;99.90;;;;;;5030889;28;20057;-58
2022/02/13 02:22:23;;;;;;;15.47;5.60;;;-0.60;99.90;;;;;;5034263;28;20084;-58
2022/02/13 02:24:49;;;;;;;11.93;4.90;;;-0.60;99.90;;;;;;5044594;28;20025;-57
2022/02/13 02:27:14;;;;;;;7.50;4.80;;;-0.60;99.90;;;;;;5049851;28;20029;-57
2022/02/13 02:29:40;;;;;;;9.77;4.63;;;-0.60;99.90;;;;;;5031563;28;20036;-58
2022/02/13 02:32:10;;;;;;;10.40;5.10;;;-0.60;99.90;;;;;;5031495;28;20034;-58
2022/02/13 02:34:38;;;;;;;10.67;5.47;;;-0.70;99.90;;;;;;5049754;28;20055;-58
2022/02/13 02:37:05;;;;;;;11.50;4.93;;;-0.70;99.90;;;;;;5048330;28;20399;-59
2022/02/13 02:39:30;;;;;;;9.30;4.70;;;-0.80;99.90;;;;;;5043854;28;20037;-57
2022/02/13 02:41:56;;;;;;;16.37;4.60;;;-0.90;99.90;;;;;;5045969;28;20017;-56
2022/02/13 02:44:21;;;;;;;13.63;5.73;;;-0.90;99.90;;;;;;5048283;28;20085;-58
2022/02/13 02:46:47;;;;;;;16.03;6.07;;;-0.90;99.90;;;;;;5043374;28;20029;-58
2022/02/13 02:49:12;;;;;;;11.73;4.83;;;-1.00;99.90;;;;;;5047767;28;20036;-59
2022/02/13 02:51:38;;;;;;;14.43;4.57;;;-1.00;99.90;;;;;;5027870;28;20049;-57
2022/02/13 02:54:03;;;;;;;15.23;4.93;;;-0.90;99.90;;;;;;5037392;28;20029;-57
2022/02/13 02:56:29;;;;;;;9.50;4.73;;;-0.90;99.90;;;;;;5035661;28;20041;-58
2022/02/13 02:58:55;;;;;;;14.40;5.30;;;-0.90;99.90;;;;;;5046844;28;20060;-58
2022/02/13 03:01:20;;;;;;;16.70;6.97;;;-1.00;99.90;;;;;;5039927;28;20059;-57
2022/02/13 03:03:46;;;;;;;15.73;5.37;;;-1.00;99.90;;;;;;5045524;28;20032;-58
2022/02/13 03:06:11;;;;;;;13.53;5.27;;;-1.00;99.90;;;;;;5041268;28;20091;-57
2022/02/13 03:08:37;;;;;;;11.23;4.73;;;-1.00;99.90;;;;;;5035168;28;20084;-58
2022/02/13 03:11:02;;;;;;;11.93;4.53;;;-1.10;99.90;;;;;;5033716;28;20029;-59
2022/02/13 03:13:28;;;;;;;11.77;4.67;;;-1.00;99.90;;;;;;5051261;28;20037;-59
2022/02/13 03:15:54;;;;;;;14.63;5.60;;;-1.10;99.90;;;;;;5044363;28;20037;-59
2022/02/13 03:18:19;;;;;;;12.10;4.13;;;-1.10;99.90;;;;;;5040467;28;20767;-60
2022/02/13 03:20:46;;;;;;;7.53;4.33;;;-1.10;99.90;;;;;;5043170;28;20059;-58
2022/02/13 03:23:12;;;;;;;10.93;5.27;;;-1.20;99.90;;;;;;5043267;28;20035;-59
2022/02/13 03:25:38;;;;;;;16.83;5.83;;;-1.30;99.90;;;;;;5046888;28;20041;-59
2022/02/13 03:28:03;;;;;;;16.17;6.20;;;-1.30;99.90;;;;;;5042191;28;20033;-54
2022/02/13 03:30:29;;;;;;;15.17;5.43;;;-1.30;99.90;;;;;;5044386;28;20025;-57
2022/02/13 03:32:54;;;;;;;12.43;4.77;;;-1.30;99.90;;;;;;5033154;28;20176;-55
2022/02/13 03:35:20;;;;;;;20.10;6.33;;;-1.30;99.90;;;;;;5040070;28;20082;-55
2022/02/13 03:37:46;;;;;;;16.10;5.47;;;-1.20;99.90;;;;;;5052631;28;20106;-51
2022/02/13 03:40:13;;;;;;;10.50;4.80;;;-1.20;99.90;;;;;;5043173;28;20179;-58
2022/02/13 03:42:38;;;;;;;15.43;4.67;;;-1.20;99.90;;;;;;5036180;28;20128;-57
2022/02/13 03:45:04;;;;;;;15.63;4.93;;;-1.10;99.90;;;;;;5037583;28;20041;-58
2022/02/13 03:47:30;;;;;;;16.40;4.73;;;-1.20;99.90;;;;;;5045107;28;20108;-58
2022/02/13 03:49:55;;;;;;;10.57;4.97;;;-1.20;99.90;;;;;;5052273;28;20399;-57
2022/02/13 03:52:21;;;;;;;17.23;4.73;;;-1.20;99.90;;;;;;5051351;28;20060;-56
2022/02/13 03:54:47;;;;;;;13.67;6.23;;;-1.30;99.90;;;;;;5042311;28;20021;-58
2022/02/13 03:57:13;;;;;;;13.13;6.67;;;-1.40;99.90;;;;;;5020510;28;20059;-58
2022/02/13 03:59:38;;;;;;;12.60;5.50;;;-1.40;99.90;;;;;;5043286;28;20052;-57
2022/02/13 04:02:04;;;;;;;16.27;6.20;;;-1.50;99.90;;;;;;5041413;28;20479;-55
2022/02/13 04:04:29;;;;;;;14.50;5.93;;;-1.50;99.90;;;;;;5043445;28;20109;-58
2022/02/13 04:06:55;;;;;;;12.57;5.30;;;-1.50;99.90;;;;;;5036276;28;20033;-56
2022/02/13 04:09:20;;;;;;;13.87;5.77;;;-1.50;99.90;;;;;;5036065;28;20033;-59
2022/02/13 04:11:46;;;;;;;13.60;4.90;;;-1.50;99.90;;;;;;5042431;28;20025;-57
2022/02/13 04:14:11;;;;;;;10.87;5.37;;;-1.50;99.90;;;;;;5040473;28;20428;-58
2022/02/13 04:16:37;;;;;;;11.60;5.33;;;-1.40;99.90;;;;;;5034589;28;20041;-58
2022/02/13 04:19:03;;;;;;;10.30;4.60;;;-1.30;99.90;;;;;;5051605;28;20045;-59
2022/02/13 04:21:28;;;;;;;26.63;7.57;;;-1.30;99.90;;;;;;5038249;28;20029;-58
2022/02/13 04:23:54;;;;;;;13.37;5.30;;;-1.40;99.90;;;;;;5043299;28;20154;-58
2022/02/13 04:26:19;;;;;;;13.27;5.40;;;-1.40;99.90;;;;;;5043361;28;20483;-59
2022/02/13 04:28:45;;;;;;;14.90;5.67;;;-1.50;99.90;;;;;;5050776;28;20037;-58
2022/02/13 04:31:10;;;;;;;15.50;5.87;;;-1.50;99.90;;;;;;5043826;28;20030;-57
2022/02/13 04:33:36;;;;;;;8.20;4.63;;;-1.50;99.90;;;;;;5048515;28;20108;-53
2022/02/13 04:36:02;;;;;;;11.40;5.43;;;-1.50;99.90;;;;;;5017156;28;20375;-59
2022/02/13 04:38:28;;;;;;;12.30;5.53;;;-1.60;99.90;;;;;;5039576;28;20029;-58
2022/02/13 04:40:53;;;;;;;12.97;5.90;;;-1.60;99.90;;;;;;5037867;28;20116;-58
2022/02/13 04:43:19;;;;;;;10.97;5.27;;;-1.60;99.90;;;;;;5050027;28;20032;-58
2022/02/13 04:45:44;;;;;;;10.47;5.63;;;-1.60;99.90;;;;;;5049205;28;20403;-58
2022/02/13 04:48:10;;;;;;;10.87;5.77;;;-1.60;99.90;;;;;;5051746;28;20170;-57
2022/02/13 04:50:36;;;;;;;12.30;5.27;;;-1.60;99.90;;;;;;5045251;28;20538;-56
2022/02/13 04:53:01;;;;;;;14.63;5.33;;;-1.60;99.90;;;;;;5040207;28;20442;-55
2022/02/13 04:55:27;;;;;;;12.03;6.20;;;-1.60;99.90;;;;;;5044533;28;20556;-59
2022/02/13 04:57:52;;;;;;;9.03;4.20;;;-1.60;99.90;;;;;;5031833;28;20033;-57
2022/02/13 05:00:19;;;;;;;10.67;5.20;;;-1.60;99.90;;;;;;5031844;28;20033;-58
2022/02/13 05:02:45;;;;;;;11.23;4.90;;;-1.60;99.90;;;;;;5017034;28;20048;-59
2022/02/13 05:05:11;;;;;;;15.83;5.83;;;-1.60;99.90;;;;;;5036730;28;20033;-57
2022/02/13 05:07:37;;;;;;;14.77;5.97;;;-1.60;99.90;;;;;;5033668;28;20506;-56
2022/02/13 05:10:04;;;;;;;13.20;5.63;;;-1.60;99.90;;;;;;5036121;28;20033;-57
2022/02/13 05:12:30;;;;;;;13.37;5.70;;;-1.60;99.90;;;;;;5049784;28;20025;-56
2022/02/13 05:14:56;;;;;;;12.63;5.70;;;-1.60;99.90;;;;;;5050324;28;20040;-58
2022/02/13 05:17:21;;;;;;;13.90;6.33;;;-1.50;99.90;;;;;;5032674;28;20172;-59
2022/02/13 05:19:48;;;;;;;15.13;5.80;;;-1.50;99.90;;;;;;5031146;28;20049;-58
2022/02/13 05:22:15;;;;;;;16.37;5.63;;;-1.40;99.90;;;;;;5035813;28;20124;-58
2022/02/13 05:24:40;;;;;;;9.67;5.13;;;-1.40;99.90;;;;;;5030880;28;20536;-59
2022/02/13 05:27:06;;;;;;;12.93;6.23;;;-1.40;99.90;;;;;;5032749;28;20033;-59
2022/02/13 05:29:35;;;;;;;11.13;5.20;;;-1.40;99.90;;;;;;5044823;28;20036;-57
2022/02/13 05:32:05;;;;;;;12.60;5.13;;;-1.50;99.90;;;;;;5045285;28;20078;-59
2022/02/13 05:34:31;;;;;;;13.73;5.70;;;-1.50;99.90;;;;;;5032541;28;20021;-57
2022/02/13 05:36:57;;;;;;;11.10;5.40;;;-1.50;99.90;;;;;;5036460;28;20313;-55
2022/02/13 05:39:23;;;;;;;15.90;5.37;;;-1.50;99.90;;;;;;5033066;28;20098;-58
2022/02/13 05:41:48;;;;;;;11.87;5.27;;;-1.50;99.90;;;;;;5041259;28;20487;-57
2022/02/13 05:44:14;;;;;;;11.83;5.33;;;-1.50;99.90;;;;;;5029801;28;20025;-50
2022/02/13 05:46:40;;;;;;;14.43;5.97;;;-1.50;99.90;;;;;;5030416;28;20160;-58
2022/02/13 05:49:06;;;;;;;12.33;5.90;;;-1.60;99.90;;;;;;5032237;28;20104;-59
2022/02/13 05:51:32;;;;;;;15.27;6.07;;;-1.60;99.90;;;;;;5033873;28;20072;-57
2022/02/13 05:53:57;;;;;;;12.40;5.40;;;-1.60;99.90;;;;;;5031088;28;20510;-57
2022/02/13 05:56:24;;;;;;;15.07;5.97;;;-1.60;99.90;;;;;;5047839;28;20029;-57
2022/02/13 05:58:51;;;;;;;17.57;6.17;;;-1.70;99.90;;;;;;5043432;28;20025;-58
2022/02/13 06:01:17;;;;;;;14.57;5.53;;;-1.70;99.90;;;;;;5032997;28;20095;-58
2022/02/13 06:03:43;;;;;;;8.60;5.13;;;-1.70;99.90;;;;;;5014274;28;20037;-58
2022/02/13 06:06:09;;;;;;;13.63;5.70;;;-1.70;99.90;;;;;;5034475;28;20051;-55
2022/02/13 06:08:34;;;;;;;12.33;5.80;;;-1.70;99.90;;;;;;5034804;28;20516;-57
2022/02/13 06:11:00;;;;;;;16.33;6.23;;;-1.70;99.90;;;;;;5048418;28;20106;-58
2022/02/13 06:13:26;;;;;;;13.17;4.90;;;-1.70;99.90;;;;;;5045398;28;20055;-58
2022/02/13 06:15:51;;;;;;;12.70;5.70;;;-1.70;99.90;;;;;;5045514;28;20114;-58
2022/02/13 06:18:17;;;;;;;13.60;5.80;;;-1.70;99.90;;;;;;5043000;28;20100;-59
2022/02/13 06:20:42;;;;;;;14.57;6.13;;;-1.80;99.90;;;;;;5034311;28;20075;-54
2022/02/13 06:23:08;;;;;;;15.20;6.53;;;-1.70;99.90;;;;;;5044139;28;20035;-57
2022/02/13 06:25:35;;;;;;;12.00;6.80;;;-1.70;99.90;;;;;;5045677;28;20372;-58
2022/02/13 06:28:01;;;;;;;11.57;5.93;;;-1.60;99.90;;;;;;5032176;28;20032;-59
2022/02/13 06:30:26;;;;;;;13.97;5.67;;;-1.60;99.90;;;;;;5037629;28;20029;-57
2022/02/13 06:32:52;;;;;;;14.93;6.37;;;-1.50;99.90;;;;;;5042064;28;20029;-56
2022/02/13 06:35:18;;;;;;;13.13;6.20;;;-1.50;99.90;;;;;;5047542;28;20072;-59
2022/02/13 06:37:43;;;;;;;15.47;6.43;;;-1.50;99.90;;;;;;5030161;28;20041;-58
2022/02/13 06:40:09;;;;;;;34.77;14.73;;;-1.50;99.90;;;;;;5037064;28;20053;-59
2022/02/13 06:42:35;;;;;;;43.53;21.70;;;-1.50;99.90;;;;;;5040023;28;20428;-59
2022/02/13 06:45:01;;;;;;;46.40;23.30;;;-1.40;99.90;;;;;;5048061;28;20104;-59
2022/02/13 06:47:26;;;;;;;41.43;21.20;;;-1.40;99.90;;;;;;5046320;28;20521;-57
2022/02/13 06:49:52;;;;;;;23.43;13.07;;;-1.40;99.90;;;;;;5047860;28;20089;-57
2022/02/13 06:52:18;;;;;;;22.53;11.03;;;-1.40;99.90;;;;;;5038465;28;20033;-59
2022/02/13 06:54:43;;;;;;;17.23;8.40;;;-1.40;99.90;;;;;;5044186;28;20033;-59
2022/02/13 06:57:09;;;;;;;15.47;8.63;;;-1.40;99.90;;;;;;5047558;28;20029;-59
2022/02/13 06:59:34;;;;;;;23.20;9.53;;;-1.50;99.90;;;;;;5039653;28;20036;-58
2022/02/13 07:02:00;;;;;;;13.33;7.50;;;-1.50;99.90;;;;;;5024363;28;20545;-55
2022/02/13 07:04:25;;;;;;;14.30;8.20;;;-1.50;99.90;;;;;;5036298;28;20144;-58
2022/02/13 07:06:51;;;;;;;13.67;6.93;;;-1.50;99.90;;;;;;5038681;28;20072;-60
2022/02/13 07:09:17;;;;;;;11.07;5.77;;;-1.40;99.90;;;;;;5038495;28;20025;-58
2022/02/13 07:11:42;;;;;;;13.10;5.50;;;-1.30;99.90;;;;;;5035758;28;20041;-59
2022/02/13 07:14:08;;;;;;;11.93;5.73;;;-1.30;99.90;;;;;;5035773;28;20040;-58
2022/02/13 07:16:33;;;;;;;13.70;5.13;;;-1.20;99.90;;;;;;5037270;28;20032;-58
2022/02/13 07:18:59;;;;;;;12.17;6.03;;;-1.20;99.90;;;;;;5032820;28;20109;-57
2022/02/13 07:21:25;;;;;;;16.87;5.87;;;-1.10;99.90;;;;;;5038998;28;20047;-58
2022/02/13 07:23:50;;;;;;;11.10;5.77;;;-1.00;99.90;;;;;;5047991;28;20036;-58
2022/02/13 07:26:16;;;;;;;9.50;5.50;;;-0.90;99.90;;;;;;5029829;28;20491;-59
2022/02/13 07:28:59;;;;;;;11.10;5.00;;;-0.70;99.90;;;;;;5037136;28;20521;-58
2022/02/13 07:31:26;;;;;;;13.07;5.03;;;-0.60;99.90;;;;;;5035778;28;20022;-58
2022/02/13 07:33:51;;;;;;;11.90;5.45;;;-0.40;99.90;;;;;;5035551;28;20402;-58
2022/02/13 07:36:17;;;;;;;10.13;4.32;;;-0.20;99.90;;;;;;5037460;28;20561;-57
2022/02/13 07:38:42;;;;;;;11.18;4.85;;;-0.10;99.90;;;;;;5035923;28;20100;-59
2022/02/13 07:41:08;;;;;;;9.45;4.68;;;0.00;99.90;;;;;;5040590;28;20053;-59
2022/02/13 07:43:34;;;;;;;14.00;5.57;;;0.20;99.90;;;;;;5041770;28;20108;-56
2022/02/13 07:46:00;;;;;;;7.55;4.68;;;0.20;99.90;;;;;;5049129;28;20036;-58
2022/02/13 07:48:26;;;;;;;9.05;4.45;;;0.30;99.90;;;;;;5033447;28;20029;-55
2022/02/13 07:50:51;;;;;;;9.05;5.25;;;0.40;99.90;;;;;;5052310;28;20406;-60
2022/02/13 07:53:17;;;;;;;14.77;5.38;;;0.50;99.90;;;;;;5050517;28;20036;-59
2022/02/13 07:55:43;;;;;;;9.88;4.70;;;0.60;99.90;;;;;;5043085;28;20025;-59
2022/02/13 07:58:10;;;;;;;13.25;4.88;;;0.70;99.90;;;;;;5042342;28;20493;-55
2022/02/13 08:00:36;;;;;;;9.60;4.32;;;0.80;99.90;;;;;;5036655;28;20046;-58
2022/02/13 08:03:02;;;;;;;14.93;5.03;;;0.80;99.90;;;;;;5018564;28;20063;-60
2022/02/13 08:05:28;;;;;;;9.30;4.45;;;0.90;99.90;;;;;;5039511;28;20055;-59
2022/02/13 08:07:53;;;;;;;9.93;4.28;;;1.00;99.90;;;;;;5040641;28;20029;-59
2022/02/13 08:10:19;;;;;;;9.70;4.55;;;1.00;99.90;;;;;;5038517;28;20037;-59
2022/02/13 08:12:46;;;;;;;11.90;4.47;;;1.10;99.90;;;;;;5036740;28;20120;-58
2022/02/13 08:15:12;;;;;;;10.88;4.30;;;1.20;99.90;;;;;;5050947;28;20032;-59
2022/02/13 08:17:38;;;;;;;9.40;5.10;;;1.30;99.90;;;;;;5041280;28;20502;-53
2022/02/13 08:20:07;;;;;;;10.18;4.68;;;1.40;99.90;;;;;;5038758;28;20029;-60
2022/02/13 08:22:33;;;;;;;8.50;4.25;;;1.40;99.90;;;;;;5039509;28;20376;-60
2022/02/13 08:24:59;;;;;;;7.70;4.30;;;1.50;99.90;;;;;;5046283;28;20056;-55
2022/02/13 08:27:24;;;;;;;8.93;4.43;;;1.70;99.90;;;;;;5032411;28;20057;-58
2022/02/13 08:29:51;;;;;;;7.68;4.00;;;1.70;99.90;;;;;;5046382;28;20071;-57
2022/02/13 08:32:17;;;;;;;14.07;4.47;;;1.80;99.90;;;;;;5048537;28;20043;-55
2022/02/13 08:34:42;;;;;;;9.68;4.72;;;1.90;99.90;;;;;;5036916;28;20025;-56
2022/02/13 08:37:08;;;;;;;10.05;4.70;;;2.00;99.90;;;;;;5038191;28;20079;-55
2022/02/13 08:39:33;;;;;;;8.18;3.88;;;2.00;99.90;;;;;;5036957;28;20030;-58
2022/02/13 08:41:59;;;;;;;9.25;4.13;;;2.10;99.90;;;;;;5050170;28;20017;-57
2022/02/13 08:44:25;;;;;;;11.00;5.35;;;2.20;99.90;;;;;;5038722;28;20502;-55
2022/02/13 08:46:50;;;;;;;13.57;5.15;;;2.30;99.90;;;;;;5030064;28;20024;-59
2022/02/13 08:49:16;;;;;;;7.80;4.70;;;2.30;99.90;;;;;;5044627;28;20113;-56
2022/02/13 08:51:41;;;;;;;9.23;4.05;;;2.40;99.90;;;;;;5036846;28;20484;-57
2022/02/13 08:54:07;;;;;;;8.80;4.18;;;2.50;99.90;;;;;;5043969;28;20028;-57
2022/02/13 08:56:32;;;;;;;9.40;4.32;;;2.50;99.90;;;;;;5034209;28;20490;-58
2022/02/13 08:58:59;;;;;;;9.18;4.32;;;2.60;99.90;;;;;;5032689;28;20095;-52
2022/02/13 09:01:25;;;;;;;9.30;3.63;;;2.70;99.90;;;;;;5043294;28;20143;-53
2022/02/13 09:03:50;;;;;;;10.52;4.90;;;2.80;99.90;;;;;;5015623;28;20136;-56
2022/02/13 09:06:16;;;;;;;11.90;4.13;;;2.90;99.90;;;;;;5033138;28;20761;-58
2022/02/13 09:08:41;;;;;;;11.15;4.07;;;3.00;99.90;;;;;;5039406;28;20032;-58
2022/02/13 09:11:07;;;;;;;12.27;4.55;;;3.10;99.90;;;;;;5041779;28;20487;-58
2022/02/13 09:13:33;;;;;;;9.88;4.68;;;3.10;99.90;;;;;;5036296;28;20032;-58
2022/02/13 09:15:58;;;;;;;7.15;3.83;;;3.20;99.90;;;;;;5032430;28;20392;-57
2022/02/13 09:18:24;;;;;;;9.45;4.35;;;3.30;99.90;;;;;;5030905;28;20033;-58
2022/02/13 09:20:49;;;;;;;9.00;4.43;;;3.40;99.90;;;;;;5031583;28;20868;-58
2022/02/13 09:23:21;;;;;;;8.05;3.97;;;3.40;99.90;;;;;;5035816;28;20095;-57
2022/02/13 09:25:48;;;;;;;6.95;3.53;;;3.50;99.90;;;;;;5035119;28;20059;-59
2022/02/13 09:28:14;;;;;;;9.38;4.00;;;3.60;99.90;;;;;;5046194;28;20091;-57
2022/02/13 09:30:40;;;;;;;10.43;4.25;;;3.70;99.90;;;;;;5033082;28;20030;-58
2022/02/13 09:33:07;;;;;;;6.05;3.38;;;3.70;99.90;;;;;;5033200;28;20387;-58
2022/02/13 09:35:32;;;;;;;10.02;3.80;;;3.80;99.90;;;;;;5035049;28;20036;-59
2022/02/13 09:37:58;;;;;;;8.18;3.55;;;3.90;99.90;;;;;;5032159;28;20673;-59
2022/02/13 09:40:24;;;;;;;7.82;3.40;;;4.10;99.90;;;;;;5036905;28;20104;-57
2022/02/13 09:42:52;;;;;;;5.75;3.33;;;4.30;99.90;;;;;;5032576;28;20463;-59
2022/02/13 09:45:18;;;;;;;10.27;4.07;;;4.60;99.90;;;;;;5041377;28;20105;-57
2022/02/13 09:47:44;;;;;;;9.77;4.20;;;5.00;99.90;;;;;;5030645;28;20041;-59
2022/02/13 09:50:10;;;;;;;7.45;3.85;;;5.40;99.90;;;;;;5043878;28;20482;-58
2022/02/13 09:52:36;;;;;;;6.30;3.78;;;5.60;99.90;;;;;;5033048;28;20061;-59
2022/02/13 09:55:02;;;;;;;8.13;2.92;;;5.80;99.90;;;;;;5048163;28;20048;-57
2022/02/13 10:00:13;;;;;;;8.25;4.07;;;6.00;99.90;;;;;;5040493;28;20079;-58
2022/02/13 10:02:41;;;;;;;11.98;4.32;;;6.10;99.90;;;;;;5014272;28;20055;-58
2022/02/13 10:05:09;;;;;;;7.28;4.38;;;6.40;99.00;;;;;;5030619;28;20029;-55
2022/02/13 10:07:37;;;;;;;7.88;3.95;;;6.50;98.40;;;;;;5030032;28;20060;-58
2022/02/13 10:10:06;;;;;;;7.15;3.95;;;6.50;99.30;;;;;;5035125;28;20187;-57
2022/02/13 10:12:40;;;;;;;8.05;4.03;;;6.60;97.80;;;;;;5050001;28;20390;-59
2022/02/13 10:15:20;;;;;;;;;;;6.60;97.30;;;;;;5037879;28;20029;-59
2022/02/13 10:18:04;;;;;;;8.60;4.32;;;6.70;97.90;;;;;;5039246;28;20367;-60
2022/02/13 10:20:31;;;;;;;9.02;3.78;;;6.80;98.10;;;;;;5031320;28;20565;-58
2022/02/13 10:23:03;;;;;;;7.60;3.53;;;6.80;97.80;;;;;;5032231;28;20037;-61
2022/02/13 10:25:28;;;;;;;6.88;3.33;;;6.70;97.70;;;;;;5037985;28;20491;-60
2022/02/13 10:27:54;;;;;;;7.30;3.70;;;6.60;97.50;;;;;;5032162;28;20048;-58
2022/02/13 10:30:40;;;;;;;7.72;3.80;;;6.60;98.40;;;;;;5036928;28;20849;-59
2022/02/13 10:33:24;;;;;;;6.72;3.33;;;6.60;98.30;;;;;;5045845;28;20090;-59
2022/02/13 10:36:02;;;;;;;9.60;4.30;;;6.70;98.60;;;;;;5049922;28;20087;-58
2022/02/13 10:38:30;;;;;;;6.65;3.53;;;6.70;99.20;;;;;;5036091;28;20136;-60
2022/02/13 10:41:09;;;;;;;6.82;3.28;;;6.80;98.60;;;;;;5038331;28;20439;-59
2022/02/13 10:43:52;;;;;;;5.25;3.45;;;6.90;98.60;;;;;;5032412;28;20032;-59
2022/02/13 10:46:20;;;;;;;7.68;3.42;;;7.00;98.40;;;;;;5032336;28;20041;-59
2022/02/13 10:48:45;;;;;;;8.27;4.38;;;7.10;98.50;;;;;;5035847;28;20395;-59
2022/02/13 10:51:14;;;;;;;8.23;3.70;;;7.20;98.10;;;;;;5035519;28;20041;-59
2022/02/13 10:53:41;;;;;;;6.97;3.42;;;7.30;97.80;;;;;;5038527;28;20039;-53
2022/02/13 10:56:07;;;;;;;10.48;3.92;;;7.30;97.40;;;;;;5039584;28;20038;-59
2022/02/13 10:58:32;;;;;;;7.90;3.65;;;7.40;97.90;;;;;;5029235;28;20060;-59
2022/02/13 11:01:00;;;;;;;9.07;4.25;;;7.40;97.70;;;;;;5042944;28;20087;-61
2022/02/13 11:03:30;;;;;;;10.45;4.30;;;7.40;98.10;;;;;;5012793;28;20050;-62
2022/02/13 11:05:58;;;;;;;8.80;3.90;;;7.40;97.90;;;;;;5034826;28;20026;-60
2022/02/13 11:08:24;;;;;;;7.45;3.72;;;7.50;97.70;;;;;;5051506;28;20032;-58
2022/02/13 11:10:52;;;;;;;7.53;3.78;;;7.60;98.40;;;;;;5047582;28;20064;-58
2022/02/13 11:13:24;;;;;;;8.88;3.90;;;7.60;97.90;;;;;;5049007;28;20092;-58
2022/02/13 11:15:51;;;;;;;7.63;3.70;;;7.70;98.10;;;;;;5045261;28;20033;-58
2022/02/13 11:18:22;;;;;;;8.25;3.85;;;7.80;98.00;;;;;;5053352;28;20048;-60
2022/02/13 11:20:48;;;;;;;7.18;3.55;;;7.90;97.90;;;;;;5049121;28;20025;-58
2022/02/13 11:23:24;;;;;;;7.05;4.50;;;7.90;98.10;;;;;;5052718;28;20036;-60
2022/02/13 11:25:52;;;;;;;12.10;3.42;;;8.00;97.80;;;;;;5048145;28;20032;-59
2022/02/13 11:28:24;;;;;;;7.07;3.40;;;8.00;97.90;;;;;;5035566;28;20033;-60
2022/02/13 11:30:50;;;;;;;11.35;5.15;;;8.10;97.90;;;;;;5034813;28;20040;-59
2022/02/13 11:33:25;;;;;;;11.25;4.82;;;8.20;97.80;;;;;;5033071;28;20032;-60
2022/02/13 11:35:52;;;;;;;10.55;5.22;;;8.40;97.60;;;;;;5039524;28;20029;-61
2022/02/13 11:38:39;;;;;;;11.23;5.63;;;8.50;97.80;;;;;;5049062;28;20036;-59
2022/02/13 11:41:07;;;;;;;12.38;5.72;;;8.70;97.00;;;;;;5034763;28;20483;-57
2022/02/13 11:43:44;;;;;;;12.15;6.75;;;8.80;97.20;;;;;;5032456;28;20045;-59
2022/02/13 11:46:10;;;;;;;7.72;4.50;;;8.80;96.50;;;;;;5052096;28;20506;-60
2022/02/13 11:48:36;;;;;;;8.10;4.05;;;8.90;97.10;;;;;;5052169;28;20447;-60
2022/02/13 11:51:02;;;;;;;9.13;3.85;;;8.80;96.40;;;;;;5036229;28;20040;-60
2022/02/13 11:53:30;;;;;;;7.55;4.18;;;9.00;96.80;;;;;;5050020;28;20024;-60
2022/02/13 11:56:19;;;;;;;9.27;4.10;;;9.10;96.80;;;;;;5052080;28;20067;-60
2022/02/13 11:58:44;;;;;;;12.13;5.80;;;9.20;97.20;;;;;;5035857;28;20109;-60
2022/02/13 12:01:35;;;;;;;10.20;5.22;;;9.10;96.70;;;;;;5033670;28;20121;-60
2022/02/13 12:04:01;;;;;;;12.30;6.40;;;9.30;97.10;;;;;;5018236;28;21598;-60
2022/02/13 12:06:31;;;;;;;11.60;5.10;;;9.40;96.30;;;;;;5042195;28;20453;-60
2022/02/13 12:09:08;;;;;;;7.30;4.10;;;9.30;96.90;;;;;;5037204;28;20063;-59
2022/02/13 12:11:36;;;;;;;10.20;4.00;;;9.40;96.60;;;;;;5043615;28;20040;-58
2022/02/13 12:14:15;;;;;;;9.25;4.03;;;9.20;96.90;;;;;;5041106;28;20113;-59
2022/02/13 12:16:57;;;;;;;10.00;4.15;;;9.20;97.10;;;;;;5048485;28;20052;-60
2022/02/13 12:19:35;;;;;;;8.05;3.95;;;9.20;97.00;;;;;;5049148;28;20075;-60
2022/02/13 12:22:15;;;;;;;9.48;5.57;;;9.20;97.30;;;;;;5046034;28;20438;-60
2022/02/13 12:24:43;;;;;;;9.13;4.25;;;9.30;97.50;;;;;;5050575;28;20060;-59
2022/02/13 12:27:09;;;;;;;9.43;5.05;;;9.30;97.60;;;;;;5032631;28;20037;-58
2022/02/13 12:29:42;;;;;;;11.48;5.40;;;9.40;97.80;;;;;;5041494;28;20490;-60
2022/02/13 12:32:13;;;;;;;9.35;4.70;;;9.40;97.70;;;;;;5038060;28;20034;-60
2022/02/13 12:34:53;;;;;;;7.55;3.38;;;9.40;97.70;;;;;;5031593;28;20037;-60
2022/02/13 12:37:20;;;;;;;7.63;3.85;;;9.50;97.60;;;;;;5031989;28;20435;-60
2022/02/13 12:39:50;;;;;;;10.10;3.75;;;9.50;97.50;;;;;;5036054;28;20105;-57
2022/02/13 12:42:35;;;;;;;7.53;4.30;;;9.40;97.90;;;;;;5040809;28;20134;-59
2022/02/13 12:45:04;;;;;;;12.02;6.47;;;9.50;97.80;;;;;;5037176;28;20116;-59